Pagina principale
METAR-TAF:

METAR-TAF

Aeroporti :

San Gallo, Svizzera

latitudine: 47-29-06N, longitudine: 009-33-43E, altezza: 398 m

Osservazione

Il bollettino è stato emesso 25 minuti fa, alle 06:20 UTC
Vento 12 kt da ovest, variando fra sud/sud-ovest e ovest/nord-ovest
Temperature 14°C
Umidità 82%
Pressione 1011 hPa
Visibilità: 9000 m
Nuvoloso ad un'altezza di 3900 ft
pioggia

METAR: LSZR 260620Z 26012KT 200V290 9000 RA BKN039 14/11 Q1011 NOSIG RMK C

Ora: 08:45 (06:45 UTC)

Previsione

Il bollettino è stato emesso 1 ora e 20 minuti fa, alle 05:25 UTC
Previsione valida dal 26 alle 06 UTC al 26 alle 15 UTC
Vento 10 kt da ovest/sud-ovest
Visibilità 10 km o più
Cielo coperto ad un'altezza di 4600 ft
Temporaneamente
dal 26 alle 06 UTC al 26 alle 09 UTC
Visibilità: 4500 m
Nuvoloso ad un'altezza di 1400 ft
pioggia

TAF: LSZR 260525Z 2606/2615 25010KT 9999 OVC046 TEMPO 2606/2609 4500 RA BKN014

Osservazioni e previsioni meteorologiche di più di 4000 aeroporti (messaggi METAR e TAF).

Le stazioni disponibili sono rappresentate dai dischi gialli e rossi sulla carta.

Puntare il mouse per vedere il nome della stazione.

Clicca sopra per visualizzare le osservazioni e previsioni meteorologiche.

Per cambiare la mappa : fare clic sui pulsanti verdi con una croce nera per ingrandire, il pulsante verde con un trattino per diminuire, o sulla freccia verde per le mappe adiacenti.


METAR-TAF: